createdAt,value
2019-04-27T00:04:16.201Z,143666.67
2019-04-27T00:09:15.152Z,143615.03
2019-04-27T00:14:14.997Z,143650.22
2019-04-27T00:19:17.673Z,143595.13
2019-04-27T00:24:15.628Z,143586.91
2019-04-27T00:29:11.581Z,143606.86
2019-04-27T00:34:08.327Z,143590.41
2019-04-27T00:39:10.024Z,143559.95
2019-04-27T00:44:06.452Z,143623.27
2019-04-27T00:49:03.720Z,143511.86
2019-04-27T00:53:59.899Z,143497.81
2019-04-27T00:59:13.752Z,143434.53
2019-04-27T01:04:13.509Z,143440.34
2019-04-27T01:09:11.383Z,143453.28
2019-04-27T01:14:07.305Z,143354.81
2019-04-27T01:19:03.289Z,143398.19
2019-04-27T01:23:59.200Z,143400.53
2019-04-27T01:29:02.857Z,143402.84
2019-04-27T01:33:59.062Z,143379.44
2019-04-27T01:38:55.000Z,143378.28
2019-04-27T01:43:50.920Z,143387.66
2019-04-27T01:48:48.893Z,143449.72
2019-04-27T01:53:44.895Z,143464.97
2019-04-27T01:58:40.891Z,143481.38
2019-04-27T02:03:44.913Z,143491.94
2019-04-27T02:08:40.946Z,143550.58
2019-04-27T02:13:36.871Z,143552.89
2019-04-27T02:18:37.455Z,143529.45
2019-04-27T02:23:30.609Z,143541.19
2019-04-27T02:28:45.078Z,143547.02
2019-04-27T02:33:42.918Z,143522.44
2019-04-27T02:38:40.534Z,143517.72
2019-04-27T02:43:44.528Z,143564.63
2019-04-27T02:48:56.003Z,143521.23
2019-04-27T02:53:54.323Z,143514.22
2019-04-27T02:58:50.332Z,143525.95
2019-04-27T03:03:46.543Z,143482.56
2019-04-27T03:08:42.919Z,143489.59
2019-04-27T03:13:51.556Z,143416.94
2019-04-27T03:19:14.349Z,143406.41
2019-04-27T03:24:01.114Z,143355.97
2019-04-27T03:28:57.025Z,143334.92
2019-04-27T03:33:59.155Z,143293.88
2019-04-27T03:38:50.964Z,143270.42
2019-04-27T03:43:46.878Z,143268.08
2019-04-27T03:48:42.892Z,143304.45
2019-04-27T03:53:49.891Z,143214.20
2019-04-27T03:58:50.703Z,143160.34
2019-04-27T04:03:46.620Z,143145.12
2019-04-27T04:08:42.534Z,143133.41
2019-04-27T04:13:40.355Z,143098.30
2019-04-27T04:18:55.552Z,143148.62
2019-04-27T04:23:52.039Z,143083.08
2019-04-27T04:28:49.977Z,143019.88
2019-04-27T04:33:49.203Z,142995.30
2019-04-27T04:38:45.076Z,143058.48
2019-04-27T04:43:43.111Z,143112.37
2019-04-27T04:48:40.545Z,143112.37
2019-04-27T04:53:36.576Z,143134.61
2019-04-27T04:58:32.485Z,143187.31
2019-04-27T05:03:28.698Z,143221.22
2019-04-27T05:08:24.831Z,143217.72
2019-04-27T05:13:20.749Z,143251.69
2019-04-27T05:18:16.693Z,143273.94
2019-04-27T05:23:12.615Z,143339.59
2019-04-27T05:28:09.714Z,143529.45
2019-04-27T05:33:06.291Z,143753.48
2019-04-27T05:38:07.260Z,144541.89
2019-04-27T05:43:00.161Z,144985.78
2019-04-27T05:47:58.971Z,145027.02
2019-04-27T05:52:55.814Z,144886.81
2019-04-27T05:57:51.729Z,144734.94
2019-04-27T06:02:48.750Z,144605.41
2019-04-27T06:07:44.875Z,144431.34
2019-04-27T06:12:40.792Z,144329.03
2019-04-27T06:17:38.513Z,144354.88
2019-04-27T06:22:34.529Z,144384.25
2019-04-27T06:27:30.983Z,144417.20
2019-04-27T06:32:29.630Z,144400.70
2019-04-27T06:37:26.707Z,144401.91
2019-04-27T06:42:22.724Z,144490.16
2019-04-27T06:47:19.094Z,144516.02
2019-04-27T06:52:15.172Z,144453.67
2019-04-27T06:57:11.088Z,144544.25
2019-04-27T07:02:08.612Z,144632.48
2019-04-27T07:07:07.128Z,144694.88
2019-04-27T07:12:03.044Z,144798.50
2019-04-27T07:16:59.377Z,144718.44
2019-04-27T07:21:56.125Z,144838.50
2019-04-27T07:26:52.106Z,144846.77
2019-04-27T07:31:49.561Z,144937.45
2019-04-27T07:36:45.876Z,144968.09
2019-04-27T07:41:42.846Z,144963.36
2019-04-27T07:46:39.951Z,144991.69
2019-04-27T07:51:39.334Z,144977.56
2019-04-27T07:56:35.471Z,145003.47
2019-04-27T08:01:31.387Z,145015.27
2019-04-27T08:06:28.950Z,144820.87
2019-04-27T08:11:25.037Z,144982.25
2019-04-27T08:16:20.955Z,145078.87
2019-04-27T08:21:18.783Z,145097.73
2019-04-27T08:26:16.601Z,145044.70
2019-04-27T08:31:18.675Z,145094.22
2019-04-27T08:36:14.798Z,145188.50
2019-04-27T08:41:10.716Z,145130.72
2019-04-27T08:46:06.635Z,144977.56
2019-04-27T08:51:04.962Z,144873.88
2019-04-27T08:56:00.967Z,144916.25
2019-04-27T09:00:56.893Z,144890.34
2019-04-27T09:05:52.913Z,144972.78
2019-04-27T09:10:53.508Z,144935.09
2019-04-27T09:15:51.335Z,144942.14
2019-04-27T09:20:55.132Z,144866.77
2019-04-27T09:25:51.013Z,144925.66
2019-04-27T09:30:47.049Z,144814.97
2019-04-27T09:35:42.988Z,144709.02
2019-04-27T09:40:38.898Z,144666.62
2019-04-27T09:45:34.825Z,144517.17
2019-04-27T09:50:35.941Z,144350.16
2019-04-27T09:55:31.740Z,144326.66
2019-04-27T10:00:27.932Z,144292.56
2019-04-27T10:05:23.880Z,144316.05
2019-04-27T10:10:19.895Z,144327.81
2019-04-27T10:15:16.349Z,144391.30
2019-04-27T10:20:12.325Z,144398.37
2019-04-27T10:25:10.242Z,144398.37
2019-04-27T10:30:06.968Z,144357.23
2019-04-27T10:35:05.795Z,144353.67
2019-04-27T10:40:03.660Z,144393.66
2019-04-27T10:44:59.587Z,144456.03
2019-04-27T10:49:56.692Z,144571.33
2019-04-27T10:54:52.822Z,144619.55
2019-04-27T10:59:48.735Z,144490.16
2019-04-27T11:04:49.358Z,144508.97
2019-04-27T11:09:45.274Z,144610.14
2019-04-27T11:14:41.197Z,144631.33
2019-04-27T11:19:37.221Z,144713.75
2019-04-27T11:24:33.143Z,144651.31
2019-04-27T11:29:29.064Z,144666.62
2019-04-27T11:34:26.892Z,144704.28
2019-04-27T11:39:23.317Z,144760.83
2019-04-27T11:44:19.361Z,144743.16
2019-04-27T11:49:15.680Z,144716.11
2019-04-27T11:54:11.782Z,144678.41
2019-04-27T11:59:07.699Z,144556.03
2019-04-27T12:04:03.616Z,144576.00
2019-04-27T12:08:59.536Z,144624.23
2019-04-27T12:13:56.147Z,144663.09
2019-04-27T12:18:52.276Z,144711.38
2019-04-27T12:23:48.195Z,144584.25
2019-04-27T12:28:49.047Z,144530.16
2019-04-27T12:33:46.016Z,144528.95
2019-04-27T12:38:42.146Z,144506.61
2019-04-27T12:43:38.167Z,144596.00
2019-04-27T12:48:37.063Z,144550.14
2019-04-27T12:53:48.335Z,144473.69
2019-04-27T12:58:47.549Z,144196.19
2019-04-27T13:03:43.675Z,143668.98
2019-04-27T13:08:39.588Z,143433.33
2019-04-27T13:13:36.817Z,143397.03
2019-04-27T13:18:32.995Z,143420.44
2019-04-27T13:23:28.912Z,143491.94
2019-04-27T13:28:25.657Z,143507.19
2019-04-27T13:33:21.823Z,143618.55
2019-04-27T13:38:18.264Z,143604.50
2019-04-27T13:43:19.119Z,143665.47
2019-04-27T13:48:29.354Z,143707.72
2019-04-27T13:53:26.279Z,143737.08
2019-04-27T13:58:22.284Z,143747.63
2019-04-27T14:03:20.861Z,143819.20
2019-04-27T14:08:16.078Z,143749.97
2019-04-27T14:13:12.059Z,143778.14
2019-04-27T14:18:08.463Z,143808.66
2019-04-27T14:23:21.437Z,143803.94
2019-04-27T14:28:18.319Z,143822.72
2019-04-27T14:33:14.392Z,143796.91
2019-04-27T14:38:10.382Z,143803.94
2019-04-27T14:43:09.519Z,143732.41
2019-04-27T14:48:08.240Z,143653.72
2019-04-27T14:53:04.611Z,143705.36
2019-04-27T14:58:00.539Z,143735.92
2019-04-27T15:02:56.478Z,143726.48
2019-04-27T15:07:52.435Z,143769.95
2019-04-27T15:12:48.446Z,143832.11
2019-04-27T15:17:44.476Z,143907.22
2019-04-27T15:22:40.602Z,143904.91
2019-04-27T15:27:40.308Z,143940.13
2019-04-27T15:32:42.144Z,143928.38
2019-04-27T15:37:46.346Z,143854.41
2019-04-27T15:42:52.916Z,143897.84
2019-04-27T15:47:54.079Z,143942.44
2019-04-27T15:52:45.581Z,143907.22
2019-04-27T15:57:42.594Z,143957.70
2019-04-27T16:02:39.382Z,144012.91
2019-04-27T16:07:35.400Z,144043.45
2019-04-27T16:12:31.316Z,144059.89
2019-04-27T16:17:30.341Z,144032.86
2019-04-27T16:22:26.884Z,144069.28
2019-04-27T16:27:25.891Z,144176.22
2019-04-27T16:32:20.799Z,144445.47
2019-04-27T16:37:22.331Z,144646.62
2019-04-27T16:42:18.633Z,144576.00
2019-04-27T16:47:18.840Z,144474.84
2019-04-27T16:52:15.909Z,144508.97
2019-04-27T16:57:10.603Z,144417.20
2019-04-27T17:02:08.153Z,144278.44
2019-04-27T17:07:04.422Z,144254.95
2019-04-27T17:12:00.340Z,144191.50
2019-04-27T17:17:18.070Z,143977.69
2019-04-27T17:22:16.258Z,143879.05
2019-04-27T17:27:16.406Z,143801.63
2019-04-27T17:32:13.216Z,143773.47
2019-04-27T17:37:09.242Z,143711.23
2019-04-27T17:42:05.255Z,143693.62
2019-04-27T17:47:01.178Z,143670.19
2019-04-27T17:51:58.590Z,143633.81
2019-04-27T17:56:54.681Z,143581.03
2019-04-27T18:01:53.845Z,143581.03
2019-04-27T18:06:48.537Z,143574.00
2019-04-27T18:11:44.571Z,143534.13
2019-04-27T18:16:40.592Z,143527.09
2019-04-27T18:21:38.667Z,143543.50
2019-04-27T18:26:49.233Z,143566.98
2019-04-27T18:31:46.407Z,143535.33
2019-04-27T18:36:43.808Z,143510.70
2019-04-27T18:41:44.417Z,143506.00
2019-04-27T18:46:38.807Z,143409.91
2019-04-27T18:51:38.437Z,143386.45
2019-04-27T18:56:38.574Z,143361.84
2019-04-27T19:01:32.303Z,143344.30
2019-04-27T19:06:28.991Z,143363.03
2019-04-27T19:11:25.050Z,143372.41
2019-04-27T19:16:22.449Z,143386.45
2019-04-27T19:21:20.102Z,143472.03
2019-04-27T19:26:24.427Z,143384.09
2019-04-27T19:31:29.094Z,143386.45
2019-04-27T19:36:25.183Z,143348.95
2019-04-27T19:41:21.101Z,143414.58
2019-04-27T19:46:17.019Z,143480.22
2019-04-27T19:51:13.574Z,143433.33
2019-04-27T19:56:09.535Z,143473.19
2019-04-27T20:01:14.252Z,143310.31
2019-04-27T20:06:08.043Z,143284.50
2019-04-27T20:11:04.114Z,143266.91
2019-04-27T20:16:00.953Z,143281.00
2019-04-27T20:20:57.773Z,143384.09
2019-04-27T20:25:53.689Z,143325.55
2019-04-27T20:30:49.619Z,143370.06
2019-04-27T20:35:45.566Z,143346.59
2019-04-27T20:40:41.614Z,143341.94
2019-04-27T20:45:37.690Z,143341.94
2019-04-27T20:50:37.186Z,143330.22
2019-04-27T20:55:33.229Z,143339.59
2019-04-27T21:00:29.151Z,143360.69
2019-04-27T21:05:32.768Z,143405.20
2019-04-27T21:10:28.691Z,143388.81
2019-04-27T21:15:24.707Z,143325.55
2019-04-27T21:20:22.084Z,143317.33
2019-04-27T21:25:18.013Z,143353.66
2019-04-27T21:30:13.947Z,143337.22
2019-04-27T21:35:10.968Z,143400.53
2019-04-27T21:40:17.978Z,143386.45
2019-04-27T21:45:15.203Z,143346.59
2019-04-27T21:50:12.141Z,143341.94
2019-04-27T21:55:11.491Z,143329.06
2019-04-27T22:00:15.923Z,143348.95
2019-04-27T22:05:12.311Z,143441.55
2019-04-27T22:10:08.362Z,143421.59
2019-04-27T22:15:04.391Z,143337.22
2019-04-27T22:20:01.605Z,143341.94
2019-04-27T22:25:05.608Z,143355.97
2019-04-27T22:30:01.735Z,143366.55
2019-04-27T22:34:57.658Z,143310.31
2019-04-27T22:39:55.482Z,143305.59
2019-04-27T22:44:53.380Z,143440.34
2019-04-27T22:49:49.300Z,143408.72
2019-04-27T22:54:45.211Z,143364.19
2019-04-27T23:00:03.306Z,143372.41
2019-04-27T23:04:59.431Z,143363.03
2019-04-27T23:09:55.366Z,143392.31
2019-04-27T23:14:51.266Z,143338.42
2019-04-27T23:19:47.411Z,143325.55
2019-04-27T23:24:43.332Z,143370.06
2019-04-27T23:29:39.217Z,143373.56
2019-04-27T23:34:35.231Z,143337.22
2019-04-27T23:39:31.146Z,143350.16
2019-04-27T23:44:27.060Z,143288.02
2019-04-27T23:49:23.003Z,143379.44
2019-04-27T23:54:18.919Z,143370.06
2019-04-27T23:59:24.749Z,143316.17
